sensor_id;sensor_type;location;lat;lon;timestamp;temperature;humidity
610;DHT22;292;48.800;9.216;2023-04-03T00:01:09;7.50;62.00
610;DHT22;292;48.800;9.216;2023-04-03T00:03:37;7.50;62.00
610;DHT22;292;48.800;9.216;2023-04-03T00:06:05;7.50;62.10
610;DHT22;292;48.800;9.216;2023-04-03T00:08:34;7.50;62.10
610;DHT22;292;48.800;9.216;2023-04-03T00:11:03;7.50;62.00
610;DHT22;292;48.800;9.216;2023-04-03T00:13:30;7.50;62.10
610;DHT22;292;48.800;9.216;2023-04-03T00:16:01;7.60;62.10
610;DHT22;292;48.800;9.216;2023-04-03T00:18:29;7.60;62.10
610;DHT22;292;48.800;9.216;2023-04-03T00:20:56;7.60;62.00
610;DHT22;292;48.800;9.216;2023-04-03T00:23:23;7.60;61.80
610;DHT22;292;48.800;9.216;2023-04-03T00:25:50;7.60;61.80
610;DHT22;292;48.800;9.216;2023-04-03T00:28:18;7.60;61.70
610;DHT22;292;48.800;9.216;2023-04-03T00:30:45;7.60;61.70
610;DHT22;292;48.800;9.216;2023-04-03T00:33:14;7.50;61.70
610;DHT22;292;48.800;9.216;2023-04-03T00:35:42;7.50;61.70
610;DHT22;292;48.800;9.216;2023-04-03T00:38:09;7.50;61.80
610;DHT22;292;48.800;9.216;2023-04-03T00:40:39;7.50;61.80
610;DHT22;292;48.800;9.216;2023-04-03T00:43:12;7.50;62.00
610;DHT22;292;48.800;9.216;2023-04-03T00:45:42;7.50;61.80
610;DHT22;292;48.800;9.216;2023-04-03T00:48:13;7.50;61.80
610;DHT22;292;48.800;9.216;2023-04-03T00:50:43;7.50;61.80
610;DHT22;292;48.800;9.216;2023-04-03T00:53:15;7.50;62.00
610;DHT22;292;48.800;9.216;2023-04-03T00:55:46;7.50;61.80
610;DHT22;292;48.800;9.216;2023-04-03T00:58:15;7.40;61.80
610;DHT22;292;48.800;9.216;2023-04-03T01:00:48;7.30;61.80
610;DHT22;292;48.800;9.216;2023-04-03T01:03:17;7.30;62.00
610;DHT22;292;48.800;9.216;2023-04-03T01:05:45;7.30;62.00
610;DHT22;292;48.800;9.216;2023-04-03T01:08:12;7.30;62.00
610;DHT22;292;48.800;9.216;2023-04-03T01:10:39;7.30;62.10
610;DHT22;292;48.800;9.216;2023-04-03T01:13:19;7.30;62.10
610;DHT22;292;48.800;9.216;2023-04-03T01:15:47;7.30;62.30
610;DHT22;292;48.800;9.216;2023-04-03T01:18:18;7.30;62.30
610;DHT22;292;48.800;9.216;2023-04-03T01:24:16;7.30;62.30
610;DHT22;292;48.800;9.216;2023-04-03T01:26:45;7.30;62.30
610;DHT22;292;48.800;9.216;2023-04-03T01:29:13;7.30;62.30
610;DHT22;292;48.800;9.216;2023-04-03T01:31:53;7.20;62.30
610;DHT22;292;48.800;9.216;2023-04-03T01:34:22;7.20;62.40
610;DHT22;292;48.800;9.216;2023-04-03T01:36:50;7.20;62.40
610;DHT22;292;48.800;9.216;2023-04-03T01:39:18;7.20;62.40
610;DHT22;292;48.800;9.216;2023-04-03T01:41:45;7.20;62.40
610;DHT22;292;48.800;9.216;2023-04-03T01:44:12;7.20;62.40
610;DHT22;292;48.800;9.216;2023-04-03T01:46:39;7.20;62.40
610;DHT22;292;48.800;9.216;2023-04-03T01:49:09;7.20;62.50
610;DHT22;292;48.800;9.216;2023-04-03T01:51:36;7.20;62.50
610;DHT22;292;48.800;9.216;2023-04-03T01:54:04;7.20;62.70
610;DHT22;292;48.800;9.216;2023-04-03T01:56:31;7.20;62.50
610;DHT22;292;48.800;9.216;2023-04-03T01:58:59;7.20;62.50
610;DHT22;292;48.800;9.216;2023-04-03T02:01:26;7.10;62.50
610;DHT22;292;48.800;9.216;2023-04-03T02:03:53;7.20;62.50
610;DHT22;292;48.800;9.216;2023-04-03T02:06:22;7.10;62.50
610;DHT22;292;48.800;9.216;2023-04-03T02:08:50;7.10;62.50
610;DHT22;292;48.800;9.216;2023-04-03T02:11:17;7.10;62.40
610;DHT22;292;48.800;9.216;2023-04-03T02:13:44;7.00;62.40
610;DHT22;292;48.800;9.216;2023-04-03T02:16:12;7.00;62.40
610;DHT22;292;48.800;9.216;2023-04-03T02:18:40;7.00;62.70
610;DHT22;292;48.800;9.216;2023-04-03T02:21:07;6.90;62.70
610;DHT22;292;48.800;9.216;2023-04-03T02:23:36;6.90;62.80
610;DHT22;292;48.800;9.216;2023-04-03T02:26:05;6.90;62.80
610;DHT22;292;48.800;9.216;2023-04-03T02:28:33;6.90;62.80
610;DHT22;292;48.800;9.216;2023-04-03T02:31:00;6.90;62.80
610;DHT22;292;48.800;9.216;2023-04-03T02:33:28;6.90;62.80
610;DHT22;292;48.800;9.216;2023-04-03T02:35:57;6.90;62.80
610;DHT22;292;48.800;9.216;2023-04-03T02:38:26;6.90;62.70
610;DHT22;292;48.800;9.216;2023-04-03T02:40:59;6.90;62.50
610;DHT22;292;48.800;9.216;2023-04-03T02:43:26;6.90;62.40
610;DHT22;292;48.800;9.216;2023-04-03T02:45:53;6.90;62.40
610;DHT22;292;48.800;9.216;2023-04-03T02:48:21;6.90;62.30
610;DHT22;292;48.800;9.216;2023-04-03T02:50:48;6.90;62.30
610;DHT22;292;48.800;9.216;2023-04-03T02:53:15;6.90;62.30
610;DHT22;292;48.800;9.216;2023-04-03T02:55:43;6.90;62.30
610;DHT22;292;48.800;9.216;2023-04-03T02:58:12;6.90;62.30
610;DHT22;292;48.800;9.216;2023-04-03T03:00:40;6.90;62.10
610;DHT22;292;48.800;9.216;2023-04-03T03:03:07;6.80;62.10
610;DHT22;292;48.800;9.216;2023-04-03T03:05:34;6.80;62.00
610;DHT22;292;48.800;9.216;2023-04-03T03:08:01;6.80;62.00
610;DHT22;292;48.800;9.216;2023-04-03T03:10:28;6.80;61.80
610;DHT22;292;48.800;9.216;2023-04-03T03:12:56;6.80;61.80
610;DHT22;292;48.800;9.216;2023-04-03T03:15:24;6.80;61.80
610;DHT22;292;48.800;9.216;2023-04-03T03:17:51;6.80;61.70
610;DHT22;292;48.800;9.216;2023-04-03T03:20:19;6.80;61.70
610;DHT22;292;48.800;9.216;2023-04-03T03:22:46;6.80;61.70
610;DHT22;292;48.800;9.216;2023-04-03T03:25:13;6.80;61.50
610;DHT22;292;48.800;9.216;2023-04-03T03:27:40;6.70;61.50
610;DHT22;292;48.800;9.216;2023-04-03T03:30:08;6.70;61.50
610;DHT22;292;48.800;9.216;2023-04-03T03:32:37;6.70;61.50
610;DHT22;292;48.800;9.216;2023-04-03T03:35:04;6.70;61.40
610;DHT22;292;48.800;9.216;2023-04-03T03:37:31;6.70;61.40
610;DHT22;292;48.800;9.216;2023-04-03T03:39:58;6.70;61.40
610;DHT22;292;48.800;9.216;2023-04-03T03:42:25;6.70;61.40
610;DHT22;292;48.800;9.216;2023-04-03T03:44:52;6.70;61.20
610;DHT22;292;48.800;9.216;2023-04-03T03:47:19;6.70;61.20
610;DHT22;292;48.800;9.216;2023-04-03T03:49:47;6.70;61.20
610;DHT22;292;48.800;9.216;2023-04-03T03:52:15;6.70;61.00
610;DHT22;292;48.800;9.216;2023-04-03T03:54:43;6.60;61.00
610;DHT22;292;48.800;9.216;2023-04-03T03:57:10;6.70;61.00
610;DHT22;292;48.800;9.216;2023-04-03T03:59:37;6.70;61.00
610;DHT22;292;48.800;9.216;2023-04-03T04:02:06;6.70;60.80
610;DHT22;292;48.800;9.216;2023-04-03T04:04:33;6.70;60.70
610;DHT22;292;48.800;9.216;2023-04-03T04:07:02;6.70;60.80
610;DHT22;292;48.800;9.216;2023-04-03T04:09:29;6.70;60.80
610;DHT22;292;48.800;9.216;2023-04-03T04:11:56;6.70;60.70
610;DHT22;292;48.800;9.216;2023-04-03T04:14:23;6.70;60.50
610;DHT22;292;48.800;9.216;2023-04-03T04:16:50;6.70;60.50
610;DHT22;292;48.800;9.216;2023-04-03T04:19:17;6.80;60.50
610;DHT22;292;48.800;9.216;2023-04-03T04:21:44;6.80;60.40
610;DHT22;292;48.800;9.216;2023-04-03T04:24:12;6.80;60.20
610;DHT22;292;48.800;9.216;2023-04-03T04:26:39;6.80;60.10
610;DHT22;292;48.800;9.216;2023-04-03T04:29:08;6.80;60.10
610;DHT22;292;48.800;9.216;2023-04-03T04:31:36;6.80;60.00
610;DHT22;292;48.800;9.216;2023-04-03T04:34:02;6.90;59.80
610;DHT22;292;48.800;9.216;2023-04-03T04:36:30;6.90;59.70
610;DHT22;292;48.800;9.216;2023-04-03T04:38:57;6.90;59.60
610;DHT22;292;48.800;9.216;2023-04-03T04:41:25;6.90;59.40
610;DHT22;292;48.800;9.216;2023-04-03T04:43:53;6.90;59.40
610;DHT22;292;48.800;9.216;2023-04-03T04:46:20;6.90;59.40
610;DHT22;292;48.800;9.216;2023-04-03T04:48:47;6.90;59.40
610;DHT22;292;48.800;9.216;2023-04-03T04:51:15;6.90;59.40
610;DHT22;292;48.800;9.216;2023-04-03T04:53:42;6.90;59.20
610;DHT22;292;48.800;9.216;2023-04-03T04:56:09;6.90;58.80
610;DHT22;292;48.800;9.216;2023-04-03T04:58:39;6.90;58.50
610;DHT22;292;48.800;9.216;2023-04-03T05:01:10;6.90;58.50
610;DHT22;292;48.800;9.216;2023-04-03T05:03:37;7.00;58.40
610;DHT22;292;48.800;9.216;2023-04-03T05:06:05;7.00;58.40
610;DHT22;292;48.800;9.216;2023-04-03T05:08:33;7.00;58.50
610;DHT22;292;48.800;9.216;2023-04-03T05:11:00;7.00;58.40
610;DHT22;292;48.800;9.216;2023-04-03T05:13:27;7.00;58.10
610;DHT22;292;48.800;9.216;2023-04-03T05:15:55;7.00;58.00
610;DHT22;292;48.800;9.216;2023-04-03T05:18:22;7.00;57.70
610;DHT22;292;48.800;9.216;2023-04-03T05:20:50;7.00;57.70
610;DHT22;292;48.800;9.216;2023-04-03T05:23:17;7.00;57.60
610;DHT22;292;48.800;9.216;2023-04-03T05:25:44;7.10;57.60
610;DHT22;292;48.800;9.216;2023-04-03T05:28:12;7.10;57.40
610;DHT22;292;48.800;9.216;2023-04-03T05:30:39;7.00;57.40
610;DHT22;292;48.800;9.216;2023-04-03T05:33:08;7.10;57.60
610;DHT22;292;48.800;9.216;2023-04-03T05:35:36;7.10;57.40
610;DHT22;292;48.800;9.216;2023-04-03T05:38:05;7.10;57.40
610;DHT22;292;48.800;9.216;2023-04-03T05:40:31;7.10;57.40
610;DHT22;292;48.800;9.216;2023-04-03T05:42:59;7.00;57.30
610;DHT22;292;48.800;9.216;2023-04-03T05:45:26;7.00;57.40
610;DHT22;292;48.800;9.216;2023-04-03T05:47:53;7.00;57.40
610;DHT22;292;48.800;9.216;2023-04-03T05:50:22;6.90;57.40
610;DHT22;292;48.800;9.216;2023-04-03T05:52:50;6.90;57.40
610;DHT22;292;48.800;9.216;2023-04-03T05:55:18;6.90;57.40
610;DHT22;292;48.800;9.216;2023-04-03T05:57:45;6.90;57.40
610;DHT22;292;48.800;9.216;2023-04-03T06:00:14;6.80;57.40
610;DHT22;292;48.800;9.216;2023-04-03T06:02:41;6.90;57.40
610;DHT22;292;48.800;9.216;2023-04-03T06:05:09;6.80;57.40
610;DHT22;292;48.800;9.216;2023-04-03T06:07:38;6.80;57.40
610;DHT22;292;48.800;9.216;2023-04-03T06:10:07;6.80;57.40
610;DHT22;292;48.800;9.216;2023-04-03T06:12:35;6.80;57.30
610;DHT22;292;48.800;9.216;2023-04-03T06:15:04;6.80;57.40
610;DHT22;292;48.800;9.216;2023-04-03T06:17:31;6.80;57.40
610;DHT22;292;48.800;9.216;2023-04-03T06:19:58;6.80;57.60
610;DHT22;292;48.800;9.216;2023-04-03T06:22:25;6.80;57.70
610;DHT22;292;48.800;9.216;2023-04-03T06:24:56;6.80;57.70
610;DHT22;292;48.800;9.216;2023-04-03T06:27:24;6.80;57.70
610;DHT22;292;48.800;9.216;2023-04-03T06:29:50;6.80;57.70
610;DHT22;292;48.800;9.216;2023-04-03T06:32:17;6.80;57.80
610;DHT22;292;48.800;9.216;2023-04-03T06:34:44;6.80;57.80
610;DHT22;292;48.800;9.216;2023-04-03T06:37:14;6.80;57.80
610;DHT22;292;48.800;9.216;2023-04-03T06:39:44;6.80;57.80
610;DHT22;292;48.800;9.216;2023-04-03T06:42:13;6.80;57.80
610;DHT22;292;48.800;9.216;2023-04-03T06:44:41;6.80;57.80
610;DHT22;292;48.800;9.216;2023-04-03T06:47:09;6.80;57.80
610;DHT22;292;48.800;9.216;2023-04-03T06:49:37;6.80;58.00
610;DHT22;292;48.800;9.216;2023-04-03T06:52:05;6.90;57.80
610;DHT22;292;48.800;9.216;2023-04-03T06:54:32;6.90;57.80
610;DHT22;292;48.800;9.216;2023-04-03T06:57:00;6.90;58.00
610;DHT22;292;48.800;9.216;2023-04-03T06:59:29;6.90;58.10
610;DHT22;292;48.800;9.216;2023-04-03T07:01:56;6.90;58.10
610;DHT22;292;48.800;9.216;2023-04-03T07:04:24;6.80;58.10
610;DHT22;292;48.800;9.216;2023-04-03T07:06:52;6.80;58.10
610;DHT22;292;48.800;9.216;2023-04-03T07:09:19;6.80;58.20
610;DHT22;292;48.800;9.216;2023-04-03T07:11:46;6.80;58.40
610;DHT22;292;48.800;9.216;2023-04-03T07:14:15;6.80;58.20
610;DHT22;292;48.800;9.216;2023-04-03T07:16:44;6.80;58.20
610;DHT22;292;48.800;9.216;2023-04-03T07:19:11;6.80;58.40
610;DHT22;292;48.800;9.216;2023-04-03T07:21:38;6.80;58.40
610;DHT22;292;48.800;9.216;2023-04-03T07:24:06;6.80;58.50
610;DHT22;292;48.800;9.216;2023-04-03T07:26:33;6.80;58.60
610;DHT22;292;48.800;9.216;2023-04-03T07:29:00;6.80;58.80
610;DHT22;292;48.800;9.216;2023-04-03T07:31:28;6.80;58.80
610;DHT22;292;48.800;9.216;2023-04-03T07:33:56;6.80;58.90
610;DHT22;292;48.800;9.216;2023-04-03T07:36:23;6.90;59.20
610;DHT22;292;48.800;9.216;2023-04-03T07:38:50;6.90;59.20
610;DHT22;292;48.800;9.216;2023-04-03T07:41:19;7.00;59.30
610;DHT22;292;48.800;9.216;2023-04-03T07:43:48;7.00;59.20
610;DHT22;292;48.800;9.216;2023-04-03T07:46:17;7.10;59.20
610;DHT22;292;48.800;9.216;2023-04-03T07:48:46;7.10;59.00
610;DHT22;292;48.800;9.216;2023-04-03T07:51:17;7.20;58.80
610;DHT22;292;48.800;9.216;2023-04-03T07:53:45;7.20;58.80
610;DHT22;292;48.800;9.216;2023-04-03T07:56:14;7.20;58.60
610;DHT22;292;48.800;9.216;2023-04-03T07:58:41;7.20;58.60
610;DHT22;292;48.800;9.216;2023-04-03T08:01:08;7.30;58.60
610;DHT22;292;48.800;9.216;2023-04-03T08:03:35;7.30;58.60
610;DHT22;292;48.800;9.216;2023-04-03T08:06:04;7.40;58.60
610;DHT22;292;48.800;9.216;2023-04-03T08:08:33;7.50;58.50
610;DHT22;292;48.800;9.216;2023-04-03T08:11:01;7.50;58.50
610;DHT22;292;48.800;9.216;2023-04-03T08:13:31;7.60;58.40
610;DHT22;292;48.800;9.216;2023-04-03T08:16:07;7.60;58.40
610;DHT22;292;48.800;9.216;2023-04-03T08:18:34;7.60;58.40
610;DHT22;292;48.800;9.216;2023-04-03T08:21:05;7.60;58.20
610;DHT22;292;48.800;9.216;2023-04-03T08:23:35;7.60;58.00
610;DHT22;292;48.800;9.216;2023-04-03T08:26:10;7.60;58.00
610;DHT22;292;48.800;9.216;2023-04-03T08:28:37;7.60;58.10
610;DHT22;292;48.800;9.216;2023-04-03T08:31:06;7.70;58.10
610;DHT22;292;48.800;9.216;2023-04-03T08:33:34;7.70;58.20
610;DHT22;292;48.800;9.216;2023-04-03T08:36:03;7.70;58.20
610;DHT22;292;48.800;9.216;2023-04-03T08:38:31;7.80;58.10
610;DHT22;292;48.800;9.216;2023-04-03T08:41:10;7.80;58.00
610;DHT22;292;48.800;9.216;2023-04-03T08:43:56;7.80;58.00
610;DHT22;292;48.800;9.216;2023-04-03T08:46:36;7.80;58.00
610;DHT22;292;48.800;9.216;2023-04-03T08:49:21;7.80;58.00
610;DHT22;292;48.800;9.216;2023-04-03T08:51:51;7.90;57.80
610;DHT22;292;48.800;9.216;2023-04-03T08:54:25;7.90;57.80
610;DHT22;292;48.800;9.216;2023-04-03T08:56:58;8.00;57.70
610;DHT22;292;48.800;9.216;2023-04-03T08:59:29;8.00;57.40
610;DHT22;292;48.800;9.216;2023-04-03T09:01:59;8.10;57.30
610;DHT22;292;48.800;9.216;2023-04-03T09:04:28;8.10;57.00
610;DHT22;292;48.800;9.216;2023-04-03T09:07:02;8.10;57.00
610;DHT22;292;48.800;9.216;2023-04-03T09:09:32;8.10;57.20
610;DHT22;292;48.800;9.216;2023-04-03T09:12:15;8.20;57.00
610;DHT22;292;48.800;9.216;2023-04-03T09:14:49;8.20;56.90
610;DHT22;292;48.800;9.216;2023-04-03T09:17:24;8.30;56.80
610;DHT22;292;48.800;9.216;2023-04-03T09:19:58;8.30;56.50
610;DHT22;292;48.800;9.216;2023-04-03T09:22:30;8.30;56.10
610;DHT22;292;48.800;9.216;2023-04-03T09:25:03;8.30;55.80
610;DHT22;292;48.800;9.216;2023-04-03T09:27:33;8.30;55.60
610;DHT22;292;48.800;9.216;2023-04-03T09:30:00;8.30;55.70
610;DHT22;292;48.800;9.216;2023-04-03T09:32:28;8.30;55.70
610;DHT22;292;48.800;9.216;2023-04-03T09:34:59;8.30;55.70
610;DHT22;292;48.800;9.216;2023-04-03T09:37:38;8.30;55.30
610;DHT22;292;48.800;9.216;2023-04-03T09:40:28;8.30;55.00
610;DHT22;292;48.800;9.216;2023-04-03T09:42:58;8.30;54.90
610;DHT22;292;48.800;9.216;2023-04-03T09:45:28;8.30;54.80
610;DHT22;292;48.800;9.216;2023-04-03T09:48:08;8.30;54.80
610;DHT22;292;48.800;9.216;2023-04-03T09:50:36;8.30;54.40
610;DHT22;292;48.800;9.216;2023-04-03T09:53:12;8.40;54.10
610;DHT22;292;48.800;9.216;2023-04-03T09:55:50;8.40;54.20
610;DHT22;292;48.800;9.216;2023-04-03T09:58:27;8.40;54.60
610;DHT22;292;48.800;9.216;2023-04-03T10:00:56;8.50;54.80
610;DHT22;292;48.800;9.216;2023-04-03T10:03:27;8.50;55.00
610;DHT22;292;48.800;9.216;2023-04-03T10:05:54;8.60;54.80
610;DHT22;292;48.800;9.216;2023-04-03T10:08:27;8.60;54.80
610;DHT22;292;48.800;9.216;2023-04-03T10:11:15;8.60;54.40
610;DHT22;292;48.800;9.216;2023-04-03T10:13:53;8.50;54.00
610;DHT22;292;48.800;9.216;2023-04-03T10:16:24;8.50;53.80
610;DHT22;292;48.800;9.216;2023-04-03T10:19:25;8.50;53.70
610;DHT22;292;48.800;9.216;2023-04-03T10:21:59;8.50;53.60
610;DHT22;292;48.800;9.216;2023-04-03T10:24:36;8.60;53.30
610;DHT22;292;48.800;9.216;2023-04-03T10:27:06;8.60;52.90
610;DHT22;292;48.800;9.216;2023-04-03T10:29:44;8.60;53.00
610;DHT22;292;48.800;9.216;2023-04-03T10:32:35;8.60;52.60
610;DHT22;292;48.800;9.216;2023-04-03T10:35:11;8.60;52.50
610;DHT22;292;48.800;9.216;2023-04-03T10:37:56;8.60;52.50
610;DHT22;292;48.800;9.216;2023-04-03T10:40:30;8.60;52.60
610;DHT22;292;48.800;9.216;2023-04-03T10:43:04;8.60;52.60
610;DHT22;292;48.800;9.216;2023-04-03T10:45:48;8.60;52.80
610;DHT22;292;48.800;9.216;2023-04-03T10:48:19;8.70;52.50
610;DHT22;292;48.800;9.216;2023-04-03T10:50:53;8.70;52.20
610;DHT22;292;48.800;9.216;2023-04-03T10:53:31;8.60;52.00
610;DHT22;292;48.800;9.216;2023-04-03T10:56:05;8.60;51.80
610;DHT22;292;48.800;9.216;2023-04-03T10:58:40;8.60;51.70
610;DHT22;292;48.800;9.216;2023-04-03T11:01:13;8.60;51.60
610;DHT22;292;48.800;9.216;2023-04-03T11:03:44;8.60;51.40
610;DHT22;292;48.800;9.216;2023-04-03T11:06:14;8.60;51.30
610;DHT22;292;48.800;9.216;2023-04-03T11:08:44;8.60;51.00
610;DHT22;292;48.800;9.216;2023-04-03T11:11:15;8.60;50.80
610;DHT22;292;48.800;9.216;2023-04-03T11:13:48;8.70;50.50
610;DHT22;292;48.800;9.216;2023-04-03T11:16:22;8.70;50.10
610;DHT22;292;48.800;9.216;2023-04-03T11:18:54;8.70;49.70
610;DHT22;292;48.800;9.216;2023-04-03T11:21:28;8.70;49.20
610;DHT22;292;48.800;9.216;2023-04-03T11:23:57;8.60;49.00
610;DHT22;292;48.800;9.216;2023-04-03T11:26:28;8.70;49.00
610;DHT22;292;48.800;9.216;2023-04-03T11:29:01;8.70;49.00
610;DHT22;292;48.800;9.216;2023-04-03T11:31:40;8.70;49.20
610;DHT22;292;48.800;9.216;2023-04-03T11:34:24;8.70;49.20
610;DHT22;292;48.800;9.216;2023-04-03T11:36:56;8.70;49.30
610;DHT22;292;48.800;9.216;2023-04-03T11:39:28;8.70;49.30
610;DHT22;292;48.800;9.216;2023-04-03T11:42:14;8.70;49.30
610;DHT22;292;48.800;9.216;2023-04-03T11:44:43;8.70;49.40
610;DHT22;292;48.800;9.216;2023-04-03T11:47:46;8.80;49.40
610;DHT22;292;48.800;9.216;2023-04-03T11:50:41;8.80;49.30
610;DHT22;292;48.800;9.216;2023-04-03T11:53:29;8.80;49.40
610;DHT22;292;48.800;9.216;2023-04-03T11:56:04;8.80;49.00
610;DHT22;292;48.800;9.216;2023-04-03T11:59:22;8.80;48.90
610;DHT22;292;48.800;9.216;2023-04-03T12:01:51;8.80;48.60
610;DHT22;292;48.800;9.216;2023-04-03T12:04:23;8.80;48.50
610;DHT22;292;48.800;9.216;2023-04-03T12:10:18;8.80;48.60
610;DHT22;292;48.800;9.216;2023-04-03T12:12:59;8.90;48.60
610;DHT22;292;48.800;9.216;2023-04-03T12:15:49;8.90;48.60
610;DHT22;292;48.800;9.216;2023-04-03T12:18:43;8.90;48.50
610;DHT22;292;48.800;9.216;2023-04-03T12:21:13;8.90;48.50
610;DHT22;292;48.800;9.216;2023-04-03T12:24:03;8.90;48.40
610;DHT22;292;48.800;9.216;2023-04-03T12:26:36;8.90;48.20
610;DHT22;292;48.800;9.216;2023-04-03T12:29:14;8.90;48.20
610;DHT22;292;48.800;9.216;2023-04-03T12:31:49;9.00;48.20
610;DHT22;292;48.800;9.216;2023-04-03T12:34:35;9.00;48.20
610;DHT22;292;48.800;9.216;2023-04-03T12:37:20;9.00;48.10
610;DHT22;292;48.800;9.216;2023-04-03T12:39:52;9.00;48.00
610;DHT22;292;48.800;9.216;2023-04-03T12:42:34;9.00;47.60
610;DHT22;292;48.800;9.216;2023-04-03T12:45:13;9.00;47.00
610;DHT22;292;48.800;9.216;2023-04-03T12:47:44;8.90;46.90
610;DHT22;292;48.800;9.216;2023-04-03T12:50:20;8.90;46.60
610;DHT22;292;48.800;9.216;2023-04-03T12:52:56;8.90;46.50
610;DHT22;292;48.800;9.216;2023-04-03T12:55:24;8.90;46.60
610;DHT22;292;48.800;9.216;2023-04-03T12:57:52;9.00;46.60
610;DHT22;292;48.800;9.216;2023-04-03T13:00:33;9.00;46.50
610;DHT22;292;48.800;9.216;2023-04-03T13:03:02;9.00;46.50
610;DHT22;292;48.800;9.216;2023-04-03T13:05:33;9.00;46.50
610;DHT22;292;48.800;9.216;2023-04-03T13:08:04;9.00;46.20
610;DHT22;292;48.800;9.216;2023-04-03T13:10:32;9.00;45.80
610;DHT22;292;48.800;9.216;2023-04-03T13:13:10;9.00;45.40
610;DHT22;292;48.800;9.216;2023-04-03T13:15:42;9.10;45.40
610;DHT22;292;48.800;9.216;2023-04-03T13:18:23;9.10;45.30
610;DHT22;292;48.800;9.216;2023-04-03T13:20:50;9.10;45.20
610;DHT22;292;48.800;9.216;2023-04-03T13:23:20;9.10;45.00
610;DHT22;292;48.800;9.216;2023-04-03T13:25:48;9.20;45.00
610;DHT22;292;48.800;9.216;2023-04-03T13:28:19;9.20;45.20
610;DHT22;292;48.800;9.216;2023-04-03T13:30:59;9.20;45.20
610;DHT22;292;48.800;9.216;2023-04-03T13:33:30;9.30;45.00
610;DHT22;292;48.800;9.216;2023-04-03T13:36:02;9.30;44.90
610;DHT22;292;48.800;9.216;2023-04-03T13:38:33;9.30;44.80
610;DHT22;292;48.800;9.216;2023-04-03T13:41:05;9.30;44.60
610;DHT22;292;48.800;9.216;2023-04-03T13:43:48;9.40;44.40
610;DHT22;292;48.800;9.216;2023-04-03T13:46:24;9.40;44.20
610;DHT22;292;48.800;9.216;2023-04-03T13:48:53;9.40;44.10
610;DHT22;292;48.800;9.216;2023-04-03T13:51:23;9.50;44.10
610;DHT22;292;48.800;9.216;2023-04-03T13:54:12;9.50;43.60
610;DHT22;292;48.800;9.216;2023-04-03T13:56:40;9.60;43.40
610;DHT22;292;48.800;9.216;2023-04-03T13:59:22;9.70;43.20
610;DHT22;292;48.800;9.216;2023-04-03T14:01:52;9.80;43.20
610;DHT22;292;48.800;9.216;2023-04-03T14:04:22;9.80;43.00
610;DHT22;292;48.800;9.216;2023-04-03T14:06:49;9.80;42.80
610;DHT22;292;48.800;9.216;2023-04-03T14:09:20;9.80;42.80
610;DHT22;292;48.800;9.216;2023-04-03T14:11:49;9.90;42.80
610;DHT22;292;48.800;9.216;2023-04-03T14:14:21;9.90;43.00
610;DHT22;292;48.800;9.216;2023-04-03T14:16:52;9.90;43.00
610;DHT22;292;48.800;9.216;2023-04-03T14:19:22;10.00;42.80
610;DHT22;292;48.800;9.216;2023-04-03T14:21:51;10.00;42.50
610;DHT22;292;48.800;9.216;2023-04-03T14:24:22;10.00;42.40
610;DHT22;292;48.800;9.216;2023-04-03T14:26:50;10.00;42.20
610;DHT22;292;48.800;9.216;2023-04-03T14:29:21;10.00;42.10
610;DHT22;292;48.800;9.216;2023-04-03T14:31:49;9.90;42.00
610;DHT22;292;48.800;9.216;2023-04-03T14:34:18;9.90;42.10
610;DHT22;292;48.800;9.216;2023-04-03T14:36:45;9.90;42.10
610;DHT22;292;48.800;9.216;2023-04-03T14:39:17;9.90;41.80
610;DHT22;292;48.800;9.216;2023-04-03T14:41:49;10.00;41.60
610;DHT22;292;48.800;9.216;2023-04-03T14:44:16;10.20;41.40
610;DHT22;292;48.800;9.216;2023-04-03T14:46:44;10.40;41.20
610;DHT22;292;48.800;9.216;2023-04-03T14:49:14;10.50;40.90
610;DHT22;292;48.800;9.216;2023-04-03T14:51:42;10.50;40.90
610;DHT22;292;48.800;9.216;2023-04-03T14:54:13;10.60;40.60
610;DHT22;292;48.800;9.216;2023-04-03T14:56:40;10.60;40.40
610;DHT22;292;48.800;9.216;2023-04-03T14:59:11;10.60;40.00
610;DHT22;292;48.800;9.216;2023-04-03T15:01:38;10.60;39.80
610;DHT22;292;48.800;9.216;2023-04-03T15:04:10;10.50;39.70
610;DHT22;292;48.800;9.216;2023-04-03T15:06:38;10.50;39.60
610;DHT22;292;48.800;9.216;2023-04-03T15:09:12;10.50;39.40
610;DHT22;292;48.800;9.216;2023-04-03T15:11:43;10.40;39.40
610;DHT22;292;48.800;9.216;2023-04-03T15:14:12;10.40;39.60
610;DHT22;292;48.800;9.216;2023-04-03T15:16:40;10.30;39.40
610;DHT22;292;48.800;9.216;2023-04-03T15:19:07;10.30;39.20
610;DHT22;292;48.800;9.216;2023-04-03T15:21:34;10.30;39.00
610;DHT22;292;48.800;9.216;2023-04-03T15:24:01;10.40;38.50
610;DHT22;292;48.800;9.216;2023-04-03T15:26:28;10.30;38.40
610;DHT22;292;48.800;9.216;2023-04-03T15:28:56;10.40;38.40
610;DHT22;292;48.800;9.216;2023-04-03T15:31:26;10.30;38.10
610;DHT22;292;48.800;9.216;2023-04-03T15:33:53;10.30;38.10
610;DHT22;292;48.800;9.216;2023-04-03T15:36:20;10.30;38.20
610;DHT22;292;48.800;9.216;2023-04-03T15:38:48;10.20;38.40
610;DHT22;292;48.800;9.216;2023-04-03T15:41:15;10.20;38.50
610;DHT22;292;48.800;9.216;2023-04-03T15:43:42;10.20;38.60
610;DHT22;292;48.800;9.216;2023-04-03T15:46:09;10.20;38.50
610;DHT22;292;48.800;9.216;2023-04-03T15:48:38;10.10;38.60
610;DHT22;292;48.800;9.216;2023-04-03T15:51:06;10.10;38.60
610;DHT22;292;48.800;9.216;2023-04-03T15:53:33;10.10;38.40
610;DHT22;292;48.800;9.216;2023-04-03T15:55:59;10.10;38.20
610;DHT22;292;48.800;9.216;2023-04-03T15:58:26;10.20;38.20
610;DHT22;292;48.800;9.216;2023-04-03T16:00:54;10.20;38.00
610;DHT22;292;48.800;9.216;2023-04-03T16:03:21;10.20;37.80
610;DHT22;292;48.800;9.216;2023-04-03T16:05:51;10.20;37.70
610;DHT22;292;48.800;9.216;2023-04-03T16:08:18;10.20;37.70
610;DHT22;292;48.800;9.216;2023-04-03T16:10:45;10.20;37.70
610;DHT22;292;48.800;9.216;2023-04-03T16:13:13;10.30;38.00
610;DHT22;292;48.800;9.216;2023-04-03T16:15:40;10.40;38.00
610;DHT22;292;48.800;9.216;2023-04-03T16:18:10;10.40;37.60
610;DHT22;292;48.800;9.216;2023-04-03T16:20:39;10.40;37.30
610;DHT22;292;48.800;9.216;2023-04-03T16:23:09;10.40;37.20
610;DHT22;292;48.800;9.216;2023-04-03T16:25:36;10.30;37.20
610;DHT22;292;48.800;9.216;2023-04-03T16:28:03;10.30;37.00
610;DHT22;292;48.800;9.216;2023-04-03T16:30:30;10.30;36.60
610;DHT22;292;48.800;9.216;2023-04-03T16:32:57;10.20;36.80
610;DHT22;292;48.800;9.216;2023-04-03T16:35:25;10.10;36.90
610;DHT22;292;48.800;9.216;2023-04-03T16:37:52;10.10;37.20
610;DHT22;292;48.800;9.216;2023-04-03T16:40:21;10.10;37.40
610;DHT22;292;48.800;9.216;2023-04-03T16:42:48;10.10;37.60
610;DHT22;292;48.800;9.216;2023-04-03T16:45:15;10.10;37.30
610;DHT22;292;48.800;9.216;2023-04-03T16:47:42;10.10;37.30
610;DHT22;292;48.800;9.216;2023-04-03T16:50:10;10.10;37.30
610;DHT22;292;48.800;9.216;2023-04-03T16:52:39;10.10;37.30
610;DHT22;292;48.800;9.216;2023-04-03T16:55:07;10.00;37.20
610;DHT22;292;48.800;9.216;2023-04-03T16:57:36;10.00;37.00
610;DHT22;292;48.800;9.216;2023-04-03T17:00:04;9.90;37.20
610;DHT22;292;48.800;9.216;2023-04-03T17:02:31;9.90;37.30
610;DHT22;292;48.800;9.216;2023-04-03T17:04:59;9.80;37.60
610;DHT22;292;48.800;9.216;2023-04-03T17:07:26;9.80;37.60
610;DHT22;292;48.800;9.216;2023-04-03T17:09:53;9.80;37.40
610;DHT22;292;48.800;9.216;2023-04-03T17:12:21;9.80;37.40
610;DHT22;292;48.800;9.216;2023-04-03T17:14:50;9.80;37.40
610;DHT22;292;48.800;9.216;2023-04-03T17:17:21;9.80;37.40